Amargosa Valley, Nevada
Current Conditions -  °F | °C
As of 11:52 AM on Saturday 20 Dec 2014 (Local Time) from KDRA Reporting Station
Broken Clouds Broken Clouds  
Wind Chill: 49°   Ceiling: 12000
Heat Index: 49°   Visibility: 10mi
Dew Point: 37°   Wind: 3mph
Humidity: 64%   Direction: 150°SSE
Pressure: 30.13"   Gusts: NA
Location:  36.64°N, 116.4°W
Report Text: KDRA 201952Z AUTO 15003KT 10SM BKN120 09/03 A3013 RMK AO2 SLP193 T00940028 $
Loading
Personal Weather Stations






























Interactive Weather Map New forecast layout! Learn more

10-Day Weather Forecast

Advertisements
Track Severe Weather on mobile